Time;durP1;ratioP1;P1;durP2;ratioP2;P2;SDS_P1;SDS_P2;PMS_P1;PMS_P2;Temp;Humidity;BMP_temperature;BMP_pressure;BME280_temperature;BME280_humidity;BME280_pressure;Samples;Min_cycle;Max_cycle;Signal;HPM_P1;HPM_P2
2022/09/30 00:01:18;;;;;;;9.27;8.57;;;6.20;99.90;;;;;;5049276;28;20214;-76
2022/09/30 00:03:43;;;;;;;9.53;8.87;;;6.20;99.90;;;;;;5051319;28;20216;-75
2022/09/30 00:06:10;;;;;;;10.90;10.10;;;6.20;99.90;;;;;;5051045;28;20178;-76
2022/09/30 00:08:37;;;;;;;10.53;9.63;;;6.20;99.90;;;;;;5050714;28;20182;-76
2022/09/30 00:11:12;;;;;;;9.10;8.40;;;6.30;99.90;;;;;;5049660;28;20415;-76
2022/09/30 00:13:39;;;;;;;9.97;8.97;;;6.30;99.90;;;;;;5051055;28;20205;-76
2022/09/30 00:16:06;;;;;;;9.40;8.60;;;6.20;99.90;;;;;;5051039;28;20650;-76
2022/09/30 00:18:32;;;;;;;12.10;10.97;;;6.30;99.90;;;;;;5050579;28;20253;-76
2022/09/30 00:20:59;;;;;;;10.57;9.50;;;6.30;99.90;;;;;;5051019;28;20234;-76
2022/09/30 00:23:25;;;;;;;10.90;9.90;;;6.30;99.90;;;;;;5050827;28;20185;-76
2022/09/30 00:25:57;;;;;;;11.27;9.13;;;6.30;99.90;;;;;;5049705;28;20178;-76
2022/09/30 00:28:23;;;;;;;9.37;8.67;;;6.20;99.90;;;;;;5050637;28;20205;-75
2022/09/30 00:30:49;;;;;;;9.40;8.60;;;6.20;99.90;;;;;;5051243;28;20687;-76
2022/09/30 00:33:15;;;;;;;10.70;8.50;;;6.20;99.90;;;;;;5049646;28;20662;-76
2022/09/30 00:35:40;;;;;;;11.07;8.70;;;6.10;99.90;;;;;;5050547;28;20178;-76
2022/09/30 00:38:07;;;;;;;10.50;9.07;;;6.00;99.90;;;;;;5050183;28;20190;-76
2022/09/30 00:40:32;;;;;;;10.43;8.90;;;6.00;99.90;;;;;;5050484;28;20224;-75
2022/09/30 00:42:59;;;;;;;9.60;8.77;;;6.00;99.90;;;;;;5050976;28;20181;-76
2022/09/30 00:45:28;;;;;;;9.37;8.63;;;6.00;99.90;;;;;;5051015;28;20235;-76
2022/09/30 00:48:04;;;;;;;10.50;9.30;;;6.00;99.90;;;;;;5050261;28;20174;-76
2022/09/30 00:50:36;;;;;;;10.27;9.37;;;5.90;99.90;;;;;;5050552;28;20649;-76
2022/09/30 00:53:15;;;;;;;9.73;8.87;;;5.90;99.90;;;;;;5049328;28;20690;-76
2022/09/30 00:56:04;;;;;;;10.63;8.80;;;5.80;99.90;;;;;;5050497;28;20188;-76
2022/09/30 00:58:39;;;;;;;8.40;7.70;;;5.80;99.90;;;;;;5050121;28;20183;-76
2022/09/30 01:01:06;;;;;;;9.63;8.87;;;5.80;99.90;;;;;;5049342;28;20224;-76
2022/09/30 01:03:49;;;;;;;9.13;8.53;;;5.80;99.90;;;;;;5050513;28;20281;-76
2022/09/30 01:06:16;;;;;;;9.73;9.00;;;5.80;99.90;;;;;;5050404;28;20738;-76
2022/09/30 01:08:42;;;;;;;11.40;10.07;;;5.90;99.90;;;;;;5048734;28;20175;-76
2022/09/30 01:11:08;;;;;;;10.00;9.20;;;5.90;99.90;;;;;;5049986;28;20665;-76
2022/09/30 01:13:35;;;;;;;11.40;10.47;;;6.00;99.90;;;;;;5052514;28;20206;-76
2022/09/30 01:16:43;;;;;;;9.93;9.17;;;6.10;99.90;;;;;;5054627;28;20193;-75
2022/09/30 01:19:41;;;;;;;9.93;9.00;;;6.10;99.90;;;;;;5035759;28;20220;-76
2022/09/30 01:22:35;;;;;;;12.80;11.70;;;6.20;99.90;;;;;;5054037;28;20634;-76
2022/09/30 01:25:19;;;;;;;13.23;9.70;;;6.30;99.90;;;;;;5054428;28;20317;-76
2022/09/30 01:28:06;;;;;;;11.23;10.33;;;6.30;99.90;;;;;;5052685;28;20221;-76
2022/09/30 01:30:56;;;;;;;12.80;10.17;;;6.30;99.90;;;;;;5052861;28;20704;-76
2022/09/30 01:33:30;;;;;;;9.30;8.70;;;6.40;99.90;;;;;;5054714;28;20659;-76
2022/09/30 01:36:42;;;;;;;10.73;9.40;;;6.40;99.90;;;;;;5052820;28;20202;-75
2022/09/30 01:39:40;;;;;;;10.50;9.60;;;6.50;99.90;;;;;;5053642;28;20179;-76
2022/09/30 01:42:17;;;;;;;12.90;11.43;;;6.50;99.90;;;;;;5052419;28;20729;-76
2022/09/30 01:45:15;;;;;;;12.87;11.53;;;6.50;99.90;;;;;;5052476;28;20725;-76
2022/09/30 01:47:45;;;;;;;34.97;11.07;;;6.50;99.90;;;;;;5053146;28;20286;-76
2022/09/30 01:50:20;;;;;;;30.73;14.00;;;6.50;99.90;;;;;;5053445;28;20339;-76
2022/09/30 01:53:19;;;;;;;21.73;11.47;;;6.50;99.90;;;;;;5052237;28;20186;-76
2022/09/30 01:56:09;;;;;;;14.77;12.00;;;6.50;99.90;;;;;;5052410;28;20524;-76
2022/09/30 01:58:49;;;;;;;17.30;12.30;;;6.50;99.90;;;;;;5053055;28;20258;-76
2022/09/30 02:01:40;;;;;;;21.87;10.97;;;6.50;99.90;;;;;;5053269;28;20271;-76
2022/09/30 02:04:14;;;;;;;13.57;12.57;;;6.60;99.90;;;;;;5053843;28;20653;-76
2022/09/30 02:06:46;;;;;;;26.43;13.33;;;6.60;99.90;;;;;;5052085;28;20662;-76
2022/09/30 02:09:20;;;;;;;23.03;11.53;;;6.60;99.90;;;;;;5053278;28;20604;-76
2022/09/30 02:11:45;;;;;;;17.40;11.07;;;6.70;99.90;;;;;;5053514;28;20218;-76
2022/09/30 02:14:21;;;;;;;12.93;11.50;;;6.70;99.90;;;;;;5053201;28;20174;-76
2022/09/30 02:17:14;;;;;;;16.97;10.40;;;6.80;99.90;;;;;;5051702;28;20204;-76
2022/09/30 02:20:06;;;;;;;15.90;9.53;;;6.70;99.90;;;;;;5053159;28;20206;-76
2022/09/30 02:22:43;;;;;;;34.37;9.93;;;6.60;99.90;;;;;;5051634;28;20206;-76
2022/09/30 02:25:17;;;;;;;21.83;11.17;;;6.60;99.90;;;;;;5052178;28;20585;-76
2022/09/30 02:27:50;;;;;;;19.97;11.30;;;6.50;99.90;;;;;;5052495;28;20509;-75
2022/09/30 02:30:17;;;;;;;40.80;10.60;;;6.50;99.90;;;;;;5051676;28;20182;-76
2022/09/30 02:33:15;;;;;;;41.47;11.57;;;6.50;99.90;;;;;;5052758;28;20182;-76
2022/09/30 02:35:50;;;;;;;31.67;9.70;;;6.50;99.90;;;;;;5052746;28;20189;-76
2022/09/30 02:38:20;;;;;;;35.20;11.20;;;6.40;99.90;;;;;;5052706;28;20654;-76
2022/09/30 02:40:48;;;;;;;21.63;11.07;;;6.40;99.90;;;;;;5052658;28;20214;-76
2022/09/30 02:43:17;;;;;;;31.30;11.37;;;6.30;99.90;;;;;;5052662;28;20232;-76
2022/09/30 02:45:51;;;;;;;17.03;9.87;;;6.30;99.90;;;;;;5051474;28;20174;-76
2022/09/30 02:48:59;;;;;;;21.17;11.80;;;6.30;99.90;;;;;;5052229;28;20666;-76
2022/09/30 02:51:47;;;;;;;9.27;8.47;;;6.30;99.90;;;;;;5037465;28;20217;-76
2022/09/30 02:54:42;;;;;;;18.80;9.90;;;6.40;99.90;;;;;;5048617;28;20218;-76
2022/09/30 02:57:18;;;;;;;35.03;10.40;;;6.40;99.90;;;;;;5050966;28;20237;-76
2022/09/30 02:59:50;;;;;;;36.03;9.80;;;6.40;99.90;;;;;;5052213;28;20202;-76
2022/09/30 03:02:16;;;;;;;26.97;10.23;;;6.50;99.90;;;;;;5051171;28;20202;-76
2022/09/30 03:04:45;;;;;;;17.53;12.17;;;6.50;99.90;;;;;;5051074;28;20181;-76
2022/09/30 03:07:11;;;;;;;20.73;12.77;;;6.50;99.90;;;;;;5051602;28;20181;-76
2022/09/30 03:09:38;;;;;;;12.77;11.57;;;6.50;99.90;;;;;;5051124;28;20189;-76
2022/09/30 03:12:19;;;;;;;23.77;10.60;;;6.50;99.90;;;;;;5051985;28;20202;-76
2022/09/30 03:15:09;;;;;;;12.73;10.93;;;6.50;99.90;;;;;;5052194;28;20337;-76
2022/09/30 03:17:49;;;;;;;12.90;10.13;;;6.50;99.90;;;;;;5051610;28;20209;-76
2022/09/30 03:20:33;;;;;;;14.00;12.70;;;6.50;99.90;;;;;;5051037;28;20206;-76
2022/09/30 03:23:38;;;;;;;19.50;15.33;;;6.50;99.90;;;;;;5052085;28;20281;-76
2022/09/30 03:26:09;;;;;;;27.67;11.63;;;6.50;99.90;;;;;;5052319;28;20189;-76
2022/09/30 03:29:06;;;;;;;28.70;21.17;;;6.50;99.90;;;;;;5050446;28;20659;-76
2022/09/30 03:31:58;;;;;;;26.17;23.67;;;6.50;99.90;;;;;;5031639;28;20210;-76
2022/09/30 03:34:36;;;;;;;41.90;25.70;;;6.50;99.90;;;;;;5051911;28;20189;-76
2022/09/30 03:37:11;;;;;;;31.87;28.53;;;6.50;99.90;;;;;;5049232;28;20182;-76
2022/09/30 03:39:58;;;;;;;36.83;25.87;;;6.50;99.90;;;;;;5051477;28;20205;-76
2022/09/30 03:42:51;;;;;;;27.83;25.17;;;6.50;99.90;;;;;;5051743;28;20231;-76
2022/09/30 03:45:35;;;;;;;39.37;24.17;;;6.40;99.90;;;;;;5046257;28;20685;-76
2022/09/30 03:48:05;;;;;;;61.43;13.10;;;6.50;99.90;;;;;;5051001;28;20271;-76
2022/09/30 03:50:35;;;;;;;15.23;9.70;;;6.40;99.90;;;;;;5051613;28;20702;-76
2022/09/30 03:53:01;;;;;;;14.60;10.70;;;6.40;99.90;;;;;;5051760;28;20209;-76
2022/09/30 03:55:28;;;;;;;12.90;10.57;;;6.40;99.90;;;;;;5051536;28;20182;-76
2022/09/30 03:57:54;;;;;;;24.63;10.60;;;6.50;99.90;;;;;;5050813;28;20175;-76
2022/09/30 04:00:20;;;;;;;11.80;10.60;;;6.40;99.90;;;;;;5051096;28;20219;-76
2022/09/30 04:02:45;;;;;;;56.17;10.77;;;6.40;99.90;;;;;;5049790;28;20667;-76
2022/09/30 04:05:11;;;;;;;14.57;9.37;;;6.40;99.90;;;;;;5051110;28;20193;-76
2022/09/30 04:07:37;;;;;;;15.83;9.80;;;6.50;99.90;;;;;;5049510;28;20615;-76
2022/09/30 04:10:04;;;;;;;14.37;8.93;;;6.50;99.90;;;;;;5049477;28;20276;-75
2022/09/30 04:12:30;;;;;;;19.67;9.70;;;6.50;99.90;;;;;;5049731;28;20691;-76
2022/09/30 04:14:56;;;;;;;15.07;9.60;;;6.50;99.90;;;;;;5051184;28;20783;-76
2022/09/30 04:17:22;;;;;;;11.23;10.03;;;6.60;99.90;;;;;;5050697;28;20209;-76
2022/09/30 04:19:48;;;;;;;34.83;10.97;;;6.60;99.90;;;;;;5049987;28;20216;-76
2022/09/30 04:22:14;;;;;;;16.53;11.73;;;6.60;99.90;;;;;;5056588;23;20233;-77
2022/09/30 04:24:40;;;;;;;13.57;12.43;;;6.60;99.90;;;;;;5032241;28;20186;-78
2022/09/30 04:27:06;;;;;;;14.27;13.13;;;6.60;99.90;;;;;;5030360;28;20463;-78
2022/09/30 04:29:32;;;;;;;14.80;13.60;;;6.60;99.90;;;;;;5031987;28;20651;-78
2022/09/30 04:31:58;;;;;;;15.13;13.63;;;6.60;99.90;;;;;;5030313;28;20198;-78
2022/09/30 04:34:24;;;;;;;14.73;13.17;;;6.70;99.90;;;;;;5032268;28;20179;-78
2022/09/30 04:36:50;;;;;;;39.23;13.10;;;6.70;99.90;;;;;;5030742;28;20679;-78
2022/09/30 04:39:15;;;;;;;16.17;13.17;;;6.70;99.90;;;;;;5031018;28;20182;-78
2022/09/30 04:41:41;;;;;;;49.63;14.53;;;6.70;99.90;;;;;;5032177;28;20218;-78
2022/09/30 04:44:08;;;;;;;19.73;14.33;;;6.70;99.90;;;;;;5032324;28;20187;-78
2022/09/30 04:46:35;;;;;;;26.17;16.43;;;6.70;99.90;;;;;;5030836;28;20258;-77
2022/09/30 04:49:04;;;;;;;31.30;14.93;;;6.60;99.90;;;;;;5034599;28;20268;-78
2022/09/30 04:51:29;;;;;;;37.10;15.27;;;6.60;99.90;;;;;;5034620;28;20569;-77
2022/09/30 04:53:56;;;;;;;65.70;14.17;;;6.50;99.90;;;;;;5035650;28;20197;-77
2022/09/30 04:56:23;;;;;;;32.80;14.30;;;6.50;99.90;;;;;;5036804;28;20179;-77
2022/09/30 04:58:50;;;;;;;21.33;14.33;;;6.50;99.90;;;;;;5035899;28;20245;-77
2022/09/30 05:01:17;;;;;;;44.07;17.23;;;6.60;99.90;;;;;;5034365;28;20214;-77
2022/09/30 05:03:43;;;;;;;16.00;13.13;;;6.60;99.90;;;;;;5035083;28;20210;-77
2022/09/30 05:06:10;;;;;;;17.23;15.47;;;6.50;99.90;;;;;;5040095;28;20640;-77
2022/09/30 05:08:36;;;;;;;15.87;13.73;;;6.50;99.90;;;;;;5037830;28;20644;-77
2022/09/30 05:11:08;;;;;;;19.10;11.13;;;6.50;99.90;;;;;;5039705;28;20225;-77
2022/09/30 05:13:37;;;;;;;20.87;10.63;;;6.40;99.90;;;;;;5040716;28;20245;-77
2022/09/30 05:16:04;;;;;;;19.57;10.13;;;6.40;99.90;;;;;;5040204;28;20186;-77
2022/09/30 05:18:32;;;;;;;26.13;10.60;;;6.30;99.90;;;;;;5043165;28;20182;-77
2022/09/30 05:21:00;;;;;;;30.87;11.17;;;6.30;99.90;;;;;;5036582;28;20238;-77
2022/09/30 05:23:29;;;;;;;50.57;14.30;;;6.30;99.90;;;;;;5033054;28;20280;-76
2022/09/30 05:25:56;;;;;;;48.27;19.50;;;6.30;99.90;;;;;;5034340;28;20569;-76
2022/09/30 05:28:22;;;;;;;38.70;24.20;;;6.20;99.90;;;;;;5032713;28;20186;-76
2022/09/30 05:30:49;;;;;;;145.87;28.27;;;6.30;99.90;;;;;;5033439;28;20179;-76
2022/09/30 05:33:15;;;;;;;85.87;14.20;;;6.30;99.90;;;;;;5032949;28;20179;-76
2022/09/30 05:35:42;;;;;;;52.53;13.00;;;6.40;99.90;;;;;;5033820;28;20175;-76
2022/09/30 05:38:09;;;;;;;107.47;29.40;;;6.40;99.90;;;;;;5033708;28;20194;-77
2022/09/30 05:40:38;;;;;;;74.97;30.97;;;6.30;99.90;;;;;;5032953;28;20560;-76
2022/09/30 05:43:04;;;;;;;76.83;30.57;;;6.20;99.90;;;;;;5032967;28;20179;-77
2022/09/30 05:45:30;;;;;;;56.90;28.80;;;6.20;99.90;;;;;;5032775;28;20522;-77
2022/09/30 05:47:56;;;;;;;76.47;25.87;;;6.20;99.90;;;;;;5032683;28;20186;-77
2022/09/30 05:50:23;;;;;;;29.00;22.63;;;6.30;99.90;;;;;;5032742;28;20221;-77
2022/09/30 05:52:51;;;;;;;70.40;23.97;;;6.40;99.90;;;;;;5033366;28;20298;-77
2022/09/30 05:55:18;;;;;;;72.03;30.63;;;6.40;99.90;;;;;;5033195;28;20175;-76
2022/09/30 05:57:49;;;;;;;88.07;24.77;;;6.50;99.90;;;;;;5032355;28;20644;-76
2022/09/30 06:00:17;;;;;;;74.33;19.43;;;6.60;99.90;;;;;;5032762;28;20679;-76
2022/09/30 06:02:43;;;;;;;45.70;15.33;;;6.60;99.90;;;;;;5032192;28;20575;-77
2022/09/30 06:05:10;;;;;;;26.67;12.30;;;6.60;99.90;;;;;;5033452;28;20187;-77
2022/09/30 06:07:37;;;;;;;31.33;11.23;;;6.60;99.90;;;;;;5032142;28;20179;-77
2022/09/30 06:10:06;;;;;;;54.37;12.50;;;6.70;99.90;;;;;;5032267;28;20202;-77
2022/09/30 06:12:34;;;;;;;60.40;14.27;;;6.80;99.90;;;;;;5033199;28;20209;-77
2022/09/30 06:15:00;;;;;;;20.43;18.27;;;6.80;99.90;;;;;;5032105;28;20183;-77
2022/09/30 06:17:25;;;;;;;29.87;13.13;;;6.80;99.90;;;;;;5031719;28;20780;-77
2022/09/30 06:19:51;;;;;;;30.67;17.77;;;6.80;99.90;;;;;;5033116;28;20217;-77
2022/09/30 06:22:17;;;;;;;21.83;14.00;;;6.90;99.90;;;;;;5031907;28;20718;-76
2022/09/30 06:24:44;;;;;;;32.67;18.07;;;6.90;99.90;;;;;;5033447;28;20561;-77
2022/09/30 06:27:10;;;;;;;56.57;18.23;;;6.80;99.90;;;;;;5036191;28;20175;-77
2022/09/30 06:29:37;;;;;;;28.43;14.70;;;7.00;99.90;;;;;;5039819;28;20214;-77
2022/09/30 06:32:03;;;;;;;21.20;11.87;;;7.00;99.90;;;;;;5035723;28;20198;-77
2022/09/30 06:34:29;;;;;;;60.23;13.60;;;7.10;99.90;;;;;;5032715;28;20183;-77
2022/09/30 06:36:55;;;;;;;42.53;14.67;;;7.20;99.90;;;;;;5033937;28;20241;-77
2022/09/30 06:39:21;;;;;;;62.77;10.93;;;7.30;99.90;;;;;;5032796;28;20183;-78
2022/09/30 06:41:47;;;;;;;24.27;11.67;;;7.30;99.90;;;;;;5038148;28;20199;-77
2022/09/30 06:44:12;;;;;;;42.70;38.40;;;7.30;99.90;;;;;;5036966;28;20553;-77
2022/09/30 06:46:38;;;;;;;88.47;51.10;;;7.30;99.90;;;;;;5037333;28;20178;-77
2022/09/30 06:49:06;;;;;;;59.07;54.93;;;7.30;99.90;;;;;;5033108;28;20237;-77
2022/09/30 06:51:32;;;;;;;73.40;67.17;;;7.30;99.90;;;;;;5033296;28;20703;-77
2022/09/30 06:53:59;;;;;;;53.33;35.87;;;7.40;99.90;;;;;;5032295;28;20190;-77
2022/09/30 06:56:25;;;;;;;33.60;30.40;;;7.40;99.90;;;;;;5032355;28;20265;-77
2022/09/30 06:58:51;;;;;;;37.70;18.00;;;7.50;99.90;;;;;;5033765;28;20175;-78
2022/09/30 07:01:19;;;;;;;63.63;13.50;;;7.60;99.90;;;;;;5033071;28;20707;-78
2022/09/30 07:03:46;;;;;;;18.93;12.47;;;7.70;99.90;;;;;;5033015;28;20229;-77
2022/09/30 07:06:14;;;;;;;18.20;11.90;;;7.80;99.90;;;;;;5032417;28;20198;-78
2022/09/30 07:08:40;;;;;;;55.50;14.27;;;7.90;99.90;;;;;;5043271;28;20616;-77
2022/09/30 07:11:15;;;;;;;52.43;14.20;;;7.80;99.90;;;;;;5038439;28;20210;-77
2022/09/30 07:13:44;;;;;;;15.40;12.23;;;7.80;99.90;;;;;;5033369;28;20190;-77
2022/09/30 07:16:15;;;;;;;22.20;11.87;;;7.90;99.90;;;;;;5036224;28;20241;-77
2022/09/30 07:18:41;;;;;;;15.07;12.30;;;7.90;99.90;;;;;;5037929;28;20626;-77
2022/09/30 07:21:09;;;;;;;31.97;12.77;;;8.00;99.90;;;;;;5039288;28;20582;-78
2022/09/30 07:23:35;;;;;;;20.20;13.77;;;8.10;99.90;;;;;;5032413;28;20179;-78
2022/09/30 07:26:03;;;;;;;18.33;13.57;;;8.20;99.90;;;;;;5033960;28;20519;-78
2022/09/30 07:28:32;;;;;;;20.83;14.07;;;8.40;99.90;;;;;;5032572;28;20186;-78
2022/09/30 07:31:02;;;;;;;21.77;16.63;;;8.50;99.90;;;;;;5032780;28;20286;-78
2022/09/30 07:33:30;;;;;;;25.27;21.40;;;8.60;99.90;;;;;;5033633;28;20181;-78
2022/09/30 07:35:57;;;;;;;14.27;12.97;;;8.70;99.90;;;;;;5033342;28;20202;-78
2022/09/30 07:38:26;;;;;;;24.23;20.57;;;8.80;99.90;;;;;;5033076;28;20274;-78
2022/09/30 07:41:00;;;;;;;23.23;21.70;;;8.90;99.90;;;;;;5033309;28;20209;-78
2022/09/30 07:43:33;;;;;;;18.50;16.80;;;9.00;99.90;;;;;;5031065;28;20555;-76
2022/09/30 07:46:08;;;;;;;21.03;19.53;;;9.20;99.90;;;;;;5031625;28;20179;-77
2022/09/30 07:48:43;;;;;;;21.23;19.73;;;9.40;99.90;;;;;;5033190;28;20722;-77
2022/09/30 07:51:12;;;;;;;17.97;16.40;;;9.80;99.90;;;;;;5037274;28;20206;-77
2022/09/30 07:53:39;;;;;;;36.77;34.57;;;10.30;99.90;;;;;;5039614;28;20191;-77
2022/09/30 07:56:06;;;;;;;32.33;30.30;;;10.70;99.90;;;;;;5032014;28;20341;-77
2022/09/30 07:58:31;;;;;;;12.97;11.63;;;10.80;99.90;;;;;;5031365;28;20178;-77
2022/09/30 08:00:58;;;;;;;11.77;10.67;;;10.80;99.90;;;;;;5030258;28;20215;-77
2022/09/30 08:03:23;;;;;;;14.03;12.73;;;10.70;99.90;;;;;;5031396;28;20187;-76
2022/09/30 08:05:50;;;;;;;12.47;11.27;;;10.60;99.90;;;;;;5031488;28;20258;-77
2022/09/30 08:08:17;;;;;;;11.90;10.73;;;10.70;99.90;;;;;;5029976;28;20203;-77
2022/09/30 08:10:42;;;;;;;10.77;9.87;;;10.90;99.90;;;;;;5031719;28;20190;-77
2022/09/30 08:13:09;;;;;;;14.67;11.50;;;11.20;99.90;;;;;;5031560;28;20179;-77
2022/09/30 08:15:35;;;;;;;17.03;15.80;;;11.50;99.90;;;;;;5031485;28;20179;-76
2022/09/30 08:18:01;;;;;;;14.40;13.30;;;12.00;99.90;;;;;;5031587;28;20186;-77
2022/09/30 08:20:28;;;;;;;12.77;11.77;;;12.50;99.90;;;;;;5030188;28;20317;-76
2022/09/30 08:22:54;;;;;;;11.17;10.17;;;12.90;99.90;;;;;;5030658;28;20688;-77
2022/09/30 08:25:21;;;;;;;9.70;8.80;;;13.20;99.90;;;;;;5030206;28;20306;-77
2022/09/30 08:27:48;;;;;;;8.07;7.43;;;13.40;99.90;;;;;;5030929;28;20179;-76
2022/09/30 08:30:14;;;;;;;8.90;8.10;;;13.70;99.90;;;;;;5031215;28;20222;-77
2022/09/30 08:32:40;;;;;;;9.77;7.57;;;13.90;99.90;;;;;;5031075;28;20589;-77
2022/09/30 08:35:06;;;;;;;9.30;8.47;;;13.70;99.90;;;;;;5031193;28;20191;-77
2022/09/30 08:37:32;;;;;;;9.97;9.17;;;13.60;99.90;;;;;;5030755;28;20174;-77
2022/09/30 08:39:58;;;;;;;9.50;8.80;;;13.50;99.90;;;;;;5031396;28;20294;-77
2022/09/30 08:42:46;;;;;;;9.80;9.00;;;13.40;99.90;;;;;;5029890;28;20260;-77
2022/09/30 08:45:50;;;;;;;9.77;8.87;;;13.30;99.90;;;;;;5029867;28;20182;-76
2022/09/30 08:48:19;;;;;;;13.00;12.10;;;13.00;99.90;;;;;;5029440;28;20186;-77
2022/09/30 08:50:59;;;;;;;10.30;9.40;;;13.00;99.90;;;;;;5030933;28;20658;-77
2022/09/30 08:53:35;;;;;;;11.47;10.53;;;13.10;99.90;;;;;;5029831;28;20270;-77
2022/09/30 08:56:01;;;;;;;12.57;11.47;;;13.40;99.90;;;;;;5030042;28;20182;-77
2022/09/30 08:58:37;;;;;;;27.07;25.37;;;13.90;99.90;;;;;;5047281;28;20190;-77
2022/09/30 09:01:16;;;;;;;29.97;27.97;;;14.00;99.90;;;;;;5049980;28;20791;-77
2022/09/30 09:03:44;;;;;;;27.30;25.23;;;13.80;99.90;;;;;;5037058;28;20183;-77
2022/09/30 09:06:29;;;;;;;26.97;25.30;;;14.00;99.90;;;;;;5033497;28;20203;-77
2022/09/30 09:09:20;;;;;;;30.43;28.60;;;14.10;99.90;;;;;;5032930;28;20189;-77
2022/09/30 09:12:05;;;;;;;18.00;16.90;;;14.20;99.90;;;;;;5033818;28;20213;-77
2022/09/30 09:15:08;;;;;;;12.70;11.80;;;14.40;99.90;;;;;;5034309;28;20652;-77
2022/09/30 09:17:51;;;;;;;11.13;10.33;;;14.40;99.90;;;;;;5025352;28;20195;-77
2022/09/30 09:20:21;;;;;;;10.10;9.30;;;14.40;99.90;;;;;;5041797;28;20229;-77
2022/09/30 09:22:49;;;;;;;11.03;9.47;;;14.60;99.90;;;;;;5044768;28;20278;-77
2022/09/30 09:25:19;;;;;;;9.83;8.87;;;14.50;99.90;;;;;;5035556;28;20193;-78
2022/09/30 09:27:58;;;;;;;10.60;9.80;;;15.00;99.90;;;;;;5048394;28;20442;-78
2022/09/30 09:30:27;;;;;;;11.83;10.83;;;15.30;99.90;;;;;;5032778;28;20187;-78
2022/09/30 09:32:57;;;;;;;17.93;16.73;;;15.80;99.90;;;;;;5030771;28;20203;-78
2022/09/30 09:35:47;;;;;;;25.03;23.43;;;16.40;99.90;;;;;;5035275;28;20175;-78
2022/09/30 09:38:30;;;;;;;13.90;13.00;;;17.20;99.90;;;;;;5034339;28;20585;-78
2022/09/30 09:41:14;;;;;;;18.50;17.43;;;17.70;99.90;;;;;;5034396;28;20593;-78
2022/09/30 09:43:47;;;;;;;30.90;29.07;;;17.90;99.90;;;;;;5036315;28;20534;-78
2022/09/30 09:46:28;;;;;;;25.50;24.03;;;18.10;99.90;;;;;;5038644;28;20190;-77
2022/09/30 09:49:12;;;;;;;24.93;23.33;;;18.20;99.90;;;;;;5044613;28;20236;-78
2022/09/30 09:51:57;;;;;;;17.93;16.53;;;18.20;99.90;;;;;;5033792;28;20206;-78
2022/09/30 09:54:26;;;;;;;15.30;14.40;;;18.60;99.90;;;;;;5043676;28;20207;-77
2022/09/30 09:56:53;;;;;;;15.27;14.37;;;18.80;99.90;;;;;;5043434;28;20175;-77
2022/09/30 09:59:19;;;;;;;10.27;9.47;;;19.00;99.90;;;;;;5046796;28;20178;-78
2022/09/30 10:01:51;;;;;;;9.37;8.47;;;19.30;99.90;;;;;;5033632;28;20214;-78
2022/09/30 10:04:26;;;;;;;7.80;7.23;;;19.70;99.90;;;;;;5034348;28;20186;-78
2022/09/30 10:06:52;;;;;;;6.77;6.37;;;20.00;99.90;;;;;;5034100;28;20678;-78
2022/09/30 10:09:26;;;;;;;9.20;8.70;;;20.00;99.90;;;;;;5034098;28;20171;-78
2022/09/30 10:12:11;;;;;;;8.57;8.10;;;20.60;99.90;;;;;;5033975;28;20683;-78
2022/09/30 10:14:52;;;;;;;17.27;16.10;;;20.50;99.90;;;;;;5027509;28;20193;-77
2022/09/30 10:17:25;;;;;;;21.03;19.87;;;20.40;99.90;;;;;;5033225;28;20179;-77
2022/09/30 10:19:54;;;;;;;26.90;25.60;;;20.70;99.90;;;;;;5033477;28;20214;-77
2022/09/30 10:22:29;;;;;;;14.93;14.23;;;21.00;99.90;;;;;;5064130;23;20230;-78
2022/09/30 10:25:13;;;;;;;14.83;14.10;;;21.30;99.90;;;;;;5053374;28;20264;-77
2022/09/30 10:28:00;;;;;;;7.00;6.60;;;21.00;99.90;;;;;;5052800;28;20178;-77
2022/09/30 10:30:52;;;;;;;7.00;6.50;;;21.50;99.10;;;;;;5052021;28;20186;-77
2022/09/30 10:33:23;;;;;;;9.83;9.27;;;21.60;98.20;;;;;;5052133;28;20262;-77
2022/09/30 10:35:54;;;;;;;6.03;5.63;;;21.60;99.40;;;;;;5051625;28;20186;-77
2022/09/30 10:38:23;;;;;;;5.40;5.10;;;21.80;96.30;;;;;;5051466;28;20190;-77
2022/09/30 10:40:50;;;;;;;5.77;5.27;;;22.20;94.00;;;;;;5053046;28;20305;-77
2022/09/30 10:43:39;;;;;;;6.05;5.63;;;21.90;94.40;;;;;;5052681;28;20248;-77
2022/09/30 10:46:07;;;;;;;5.93;5.57;;;21.80;93.70;;;;;;5052076;28;20179;-77
2022/09/30 10:48:35;;;;;;;7.47;6.87;;;21.60;94.00;;;;;;5051252;28;20174;-78
2022/09/30 10:51:02;;;;;;;6.40;6.03;;;21.70;95.30;;;;;;5053017;28;20269;-77
2022/09/30 10:53:32;;;;;;;4.80;4.50;;;22.20;94.70;;;;;;5051545;28;20670;-78
2022/09/30 10:55:59;;;;;;;4.18;3.97;;;22.70;91.10;;;;;;5052651;28;20273;-78
2022/09/30 10:58:50;;;;;;;4.28;4.00;;;22.40;88.80;;;;;;5050918;28;20189;-77
2022/09/30 11:01:26;;;;;;;4.10;3.80;;;22.50;89.40;;;;;;5052456;28;20213;-77
2022/09/30 11:04:28;;;;;;;8.80;8.43;;;23.30;81.80;;;;;;5051448;28;20185;-77
2022/09/30 11:07:03;;;;;;;7.38;6.97;;;23.50;77.30;;;;;;5052086;28;20178;-77
2022/09/30 11:09:36;;;;;;;6.13;5.82;;;23.70;79.90;;;;;;5052388;28;20178;-77
2022/09/30 11:12:37;;;;;;;5.75;5.47;;;23.70;80.90;;;;;;5052832;28;20255;-77
2022/09/30 11:15:28;;;;;;;26.20;24.60;;;24.30;77.00;;;;;;5037806;28;20191;-77
2022/09/30 11:18:12;;;;;;;16.88;15.98;;;24.20;71.40;;;;;;5050765;28;20252;-76
2022/09/30 11:20:44;;;;;;;16.73;15.88;;;23.60;71.10;;;;;;5050945;28;20213;-76
2022/09/30 11:23:32;;;;;;;15.68;14.80;;;23.90;69.30;;;;;;5051799;28;20359;-79
2022/09/30 11:26:23;;;;;;;26.95;25.67;;;24.10;68.80;;;;;;5052642;28;20186;-77
2022/09/30 11:29:26;;;;;;;25.35;24.08;;;25.20;66.60;;;;;;5051390;28;20221;-77
2022/09/30 11:32:21;;;;;;;40.22;38.22;;;25.10;66.40;;;;;;5051449;28;20618;-77
2022/09/30 11:35:06;;;;;;;26.08;24.83;;;25.30;67.30;;;;;;5048535;28;20201;-76
2022/09/30 11:37:37;;;;;;;46.05;43.78;;;25.40;68.20;;;;;;5051537;28;20184;-76
2022/09/30 11:40:26;;;;;;;36.67;34.92;;;24.90;65.10;;;;;;5051540;28;20816;-76
2022/09/30 11:43:01;;;;;;;28.45;26.92;;;25.00;63.50;;;;;;5050432;28;20398;-77
2022/09/30 11:46:08;;;;;;;21.73;20.70;;;24.80;63.60;;;;;;5051668;28;20261;-77
2022/09/30 11:48:52;;;;;;;19.80;18.80;;;25.30;62.50;;;;;;5039767;28;20186;-76
2022/09/30 11:51:25;;;;;;;16.65;15.93;;;25.10;59.80;;;;;;5052179;28;20206;-76
2022/09/30 11:54:06;;;;;;;12.63;11.88;;;24.70;59.70;;;;;;5050456;28;20206;-78
2022/09/30 11:56:44;;;;;;;7.28;6.88;;;25.10;58.20;;;;;;5050703;28;20190;-76
2022/09/30 11:59:25;;;;;;;5.07;4.82;;;25.70;56.80;;;;;;5052304;28;20711;-76
2022/09/30 12:01:53;;;;;;;6.10;5.78;;;25.60;56.80;;;;;;5050390;28;20264;-77
2022/09/30 12:04:29;;;;;;;7.55;7.15;;;25.60;55.40;;;;;;5051586;28;20539;-77
2022/09/30 12:07:00;;;;;;;4.88;4.68;;;26.00;56.00;;;;;;5049655;28;20178;-77
2022/09/30 12:09:33;;;;;;;4.70;4.50;;;25.90;55.80;;;;;;5050400;28;20518;-77
2022/09/30 12:12:09;;;;;;;3.63;3.42;;;26.40;53.50;;;;;;5049844;28;20217;-78
2022/09/30 12:14:48;;;;;;;4.05;3.85;;;26.20;52.80;;;;;;5051520;28;20543;-77
2022/09/30 12:17:36;;;;;;;3.60;3.50;;;26.00;52.80;;;;;;5051274;28;20178;-77
2022/09/30 12:20:40;;;;;;;8.35;5.95;;;26.30;53.10;;;;;;5050921;28;20205;-77
2022/09/30 12:23:17;;;;;;;5.38;4.95;;;27.80;51.70;;;;;;5049644;28;20252;-77
2022/09/30 12:25:50;;;;;;;5.55;5.00;;;28.70;50.10;;;;;;5051598;28;20232;-77
2022/09/30 12:31:25;;;;;;;4.72;4.53;;;26.60;51.10;;;;;;5050830;28;20210;-77
2022/09/30 12:34:21;;;;;;;3.70;3.50;;;26.10;50.50;;;;;;5050081;28;20177;-78
2022/09/30 12:37:12;;;;;;;3.85;3.63;;;26.50;51.30;;;;;;5049551;28;20189;-77
2022/09/30 12:39:54;;;;;;;4.20;4.00;;;27.40;49.60;;;;;;5050700;28;20634;-77
2022/09/30 12:42:25;;;;;;;4.70;4.32;;;27.70;49.10;;;;;;5049477;28;20256;-77
2022/09/30 12:45:06;;;;;;;5.03;4.75;;;28.00;48.80;;;;;;5050574;28;20601;-78
2022/09/30 12:47:49;;;;;;;10.10;9.35;;;27.50;49.00;;;;;;5050563;28;20618;-78
2022/09/30 12:50:27;;;;;;;5.72;5.35;;;28.90;45.50;;;;;;5050785;28;20272;-77
2022/09/30 12:52:56;;;;;;;6.13;5.93;;;28.20;47.70;;;;;;5050783;28;20202;-78
2022/09/30 12:55:30;;;;;;;6.60;6.20;;;26.70;48.10;;;;;;5049964;28;20552;-77
2022/09/30 12:58:01;;;;;;;6.05;5.55;;;26.80;48.30;;;;;;5049533;28;20192;-78
2022/09/30 13:00:30;;;;;;;11.70;10.55;;;27.10;49.40;;;;;;5049468;28;20251;-78
2022/09/30 13:03:04;;;;;;;7.85;7.45;;;27.70;46.50;;;;;;5049412;28;20198;-77
2022/09/30 13:05:30;;;;;;;6.00;5.72;;;27.20;46.70;;;;;;5050915;28;20178;-77
2022/09/30 13:08:04;;;;;;;6.82;6.50;;;26.50;47.50;;;;;;5050125;28;20629;-78
2022/09/30 13:10:33;;;;;;;5.07;4.78;;;26.20;48.90;;;;;;5054195;28;20237;-77
2022/09/30 13:13:11;;;;;;;8.20;6.65;;;26.50;51.00;;;;;;5053899;28;20559;-78
2022/09/30 13:15:40;;;;;;;9.18;8.68;;;27.60;49.10;;;;;;5053288;28;20178;-78